Time;durP1;ratioP1;P1;durP2;ratioP2;P2;SDS_P1;SDS_P2;PMS_P1;PMS_P2;Temp;Humidity;BMP_temperature;BMP_pressure;BME280_temperature;BME280_humidity;BME280_pressure;Samples;Min_cycle;Max_cycle;Signal;HPM_P1;HPM_P2
2023/10/17 00:01:18;;;;;;;3.38;2.90;;;8.60;99.90;;;;;;4993540;28;20321;-66
2023/10/17 00:03:46;;;;;;;5.80;2.70;;;8.60;99.90;;;;;;5000139;28;20203;-66
2023/10/17 00:06:16;;;;;;;2.58;1.88;;;8.60;99.90;;;;;;4981202;28;20217;-66
2023/10/17 00:08:44;;;;;;;6.25;2.47;;;8.60;99.90;;;;;;4962302;28;20234;-66
2023/10/17 00:11:21;;;;;;;4.07;2.70;;;8.60;99.90;;;;;;4995388;28;20228;-66
2023/10/17 00:13:59;;;;;;;3.90;2.33;;;8.40;99.90;;;;;;4990567;28;20205;-66
2023/10/17 00:16:27;;;;;;;5.85;3.00;;;8.50;99.90;;;;;;4999244;28;21717;-66
2023/10/17 00:18:54;;;;;;;5.88;2.65;;;8.60;99.90;;;;;;5006226;28;20207;-66
2023/10/17 00:21:23;;;;;;;6.45;2.88;;;8.60;99.90;;;;;;4985365;28;20213;-66
2023/10/17 00:23:52;;;;;;;5.78;3.00;;;8.60;99.90;;;;;;4959528;28;20241;-67
2023/10/17 00:26:19;;;;;;;5.93;2.90;;;8.60;99.90;;;;;;4994652;28;20206;-66
2023/10/17 00:28:48;;;;;;;6.93;2.83;;;8.00;99.90;;;;;;4992978;28;20213;-66
2023/10/17 00:31:16;;;;;;;3.65;2.83;;;;;;;;;;4993176;28;21348;-66
2023/10/17 00:33:48;;;;;;;3.22;2.33;;;8.70;99.90;;;;;;4995744;28;20202;-66
2023/10/17 00:36:16;;;;;;;3.53;2.90;;;8.60;99.90;;;;;;4993357;28;20929;-66
2023/10/17 00:38:45;;;;;;;5.13;2.90;;;8.90;99.90;;;;;;4963190;28;27953;-66
2023/10/17 00:41:18;;;;;;;4.47;2.90;;;;;;;;;;4996179;28;20209;-66
2023/10/17 00:43:45;;;;;;;5.35;3.30;;;8.60;99.90;;;;;;4993010;28;20202;-66
2023/10/17 00:46:12;;;;;;;3.92;3.00;;;8.70;99.90;;;;;;4987732;28;20212;-66
2023/10/17 00:48:39;;;;;;;5.75;3.20;;;8.60;99.90;;;;;;4998656;28;20245;-66
2023/10/17 00:51:09;;;;;;;4.30;3.42;;;8.70;99.90;;;;;;4991252;28;20212;-66
2023/10/17 00:53:39;;;;;;;3.95;3.08;;;8.70;99.90;;;;;;4961890;28;20677;-67
2023/10/17 00:56:08;;;;;;;4.75;3.17;;;8.70;99.90;;;;;;4998397;28;20317;-66
2023/10/17 00:58:35;;;;;;;3.53;2.72;;;8.70;99.90;;;;;;4989234;28;20206;-66
2023/10/17 01:01:14;;;;;;;6.75;3.05;;;8.70;99.90;;;;;;4990857;28;20650;-66
2023/10/17 01:03:43;;;;;;;7.18;3.13;;;8.70;99.90;;;;;;4997903;28;20209;-66
2023/10/17 01:06:21;;;;;;;4.28;2.80;;;8.70;99.90;;;;;;4997932;28;20207;-66
2023/10/17 01:08:49;;;;;;;4.85;3.63;;;8.70;99.90;;;;;;4999338;28;20217;-66
2023/10/17 01:11:21;;;;;;;3.92;3.30;;;8.80;99.90;;;;;;4964587;28;20348;-66
2023/10/17 01:13:50;;;;;;;6.47;3.20;;;8.70;99.90;;;;;;4996734;28;20974;-66
2023/10/17 01:16:18;;;;;;;3.92;3.22;;;8.70;99.90;;;;;;4979164;28;20253;-66
2023/10/17 01:18:45;;;;;;;4.07;2.97;;;8.70;99.90;;;;;;5001268;28;20310;-66
2023/10/17 01:21:14;;;;;;;4.90;3.13;;;8.30;99.90;;;;;;5003859;28;20204;-67
2023/10/17 01:23:41;;;;;;;4.07;3.13;;;8.70;99.90;;;;;;4989534;28;20202;-66
2023/10/17 01:26:14;;;;;;;10.43;3.40;;;8.70;99.90;;;;;;4964829;28;20217;-66
2023/10/17 01:28:45;;;;;;;8.50;3.28;;;8.70;99.90;;;;;;5000580;28;20198;-66
2023/10/17 01:31:14;;;;;;;3.65;2.97;;;8.80;99.90;;;;;;4995486;28;20210;-66
2023/10/17 01:33:42;;;;;;;5.85;3.38;;;8.70;99.90;;;;;;4994506;28;20201;-66
2023/10/17 01:36:10;;;;;;;4.03;3.00;;;8.60;99.90;;;;;;5003915;28;20229;-66
2023/10/17 01:38:38;;;;;;;3.53;3.20;;;8.80;99.90;;;;;;4996642;28;20241;-66
2023/10/17 01:41:06;;;;;;;8.73;3.67;;;8.70;99.90;;;;;;5008948;28;20194;-66
2023/10/17 01:43:40;;;;;;;4.43;3.58;;;8.70;99.90;;;;;;4965931;28;20214;-66
2023/10/17 01:46:08;;;;;;;5.60;3.20;;;8.70;99.90;;;;;;4995474;28;20205;-66
2023/10/17 01:48:36;;;;;;;7.07;3.10;;;8.70;99.90;;;;;;4994001;28;20238;-67
2023/10/17 01:51:07;;;;;;;5.25;3.28;;;8.70;99.90;;;;;;5005695;28;20205;-66
2023/10/17 01:53:35;;;;;;;6.90;3.38;;;8.70;99.90;;;;;;4988729;28;20202;-66
2023/10/17 01:56:13;;;;;;;6.35;3.88;;;8.80;99.90;;;;;;5004168;28;20224;-66
2023/10/17 01:58:45;;;;;;;4.47;3.63;;;8.80;99.90;;;;;;4978696;28;20781;-66
2023/10/17 02:01:14;;;;;;;8.30;3.72;;;8.80;99.90;;;;;;4992744;28;20581;-66
2023/10/17 02:03:41;;;;;;;6.38;3.85;;;8.80;99.90;;;;;;4986836;28;20206;-66
2023/10/17 02:06:14;;;;;;;4.75;4.10;;;8.90;99.90;;;;;;5002358;28;20198;-66
2023/10/17 02:08:42;;;;;;;4.22;3.60;;;8.80;99.90;;;;;;4991094;28;20205;-66
2023/10/17 02:11:14;;;;;;;5.65;3.75;;;8.80;99.90;;;;;;5001003;28;20202;-67
2023/10/17 02:13:45;;;;;;;5.10;3.75;;;8.80;99.90;;;;;;4964703;28;20209;-66
2023/10/17 02:16:13;;;;;;;5.28;4.00;;;8.80;99.90;;;;;;5000362;28;20222;-66
2023/10/17 02:18:40;;;;;;;8.43;4.20;;;8.80;99.90;;;;;;4985286;28;20217;-66
2023/10/17 02:21:07;;;;;;;6.65;3.80;;;8.80;99.90;;;;;;5003562;28;20225;-66
2023/10/17 02:23:43;;;;;;;6.05;4.10;;;;;;;;;;4995511;28;20203;-66
2023/10/17 02:26:11;;;;;;;4.72;3.63;;;8.80;99.90;;;;;;5000830;28;20392;-66
2023/10/17 02:28:46;;;;;;;7.20;4.15;;;8.80;99.90;;;;;;4966096;28;20220;-66
2023/10/17 02:31:15;;;;;;;5.78;4.07;;;8.80;99.90;;;;;;5002793;28;20279;-67
2023/10/17 02:33:43;;;;;;;8.15;4.28;;;8.80;99.90;;;;;;4979157;28;20206;-66
2023/10/17 02:36:12;;;;;;;5.90;4.13;;;8.80;99.90;;;;;;5000264;28;20740;-66
2023/10/17 02:38:40;;;;;;;7.80;4.07;;;8.90;99.90;;;;;;4998502;28;20328;-66
2023/10/17 02:41:12;;;;;;;9.85;4.78;;;8.90;99.90;;;;;;4995275;28;20209;-66
2023/10/17 02:43:40;;;;;;;5.72;3.90;;;8.30;99.90;;;;;;5001686;28;20264;-66
2023/10/17 02:46:07;;;;;;;6.32;3.80;;;8.90;99.90;;;;;;4968071;28;20217;-66
2023/10/17 02:48:42;;;;;;;5.50;3.92;;;8.90;99.90;;;;;;4989743;28;20714;-66
2023/10/17 02:51:31;;;;;;;6.03;4.28;;;8.90;99.90;;;;;;4993669;28;20260;-66
2023/10/17 02:53:58;;;;;;;4.82;4.25;;;8.90;99.90;;;;;;4995929;28;20213;-66
2023/10/17 02:56:26;;;;;;;7.57;4.03;;;8.80;99.90;;;;;;4991109;28;20230;-66
2023/10/17 02:59:06;;;;;;;4.82;3.80;;;8.80;99.90;;;;;;4997108;28;20198;-66
2023/10/17 03:01:34;;;;;;;5.50;4.13;;;8.80;99.90;;;;;;4967282;28;20267;-66
2023/10/17 03:04:07;;;;;;;6.57;4.15;;;8.80;99.90;;;;;;4985151;28;20238;-66
2023/10/17 03:06:37;;;;;;;6.95;4.13;;;9.10;99.90;;;;;;4989557;28;20198;-66
2023/10/17 03:09:15;;;;;;;7.60;4.65;;;8.80;99.90;;;;;;4999126;28;20231;-66
2023/10/17 03:11:50;;;;;;;7.35;4.30;;;8.60;99.90;;;;;;4972009;28;20233;-66
2023/10/17 03:14:22;;;;;;;7.28;4.88;;;;;;;;;;4984901;28;20714;-67
2023/10/17 03:16:52;;;;;;;6.30;4.22;;;8.80;99.90;;;;;;4992321;28;20539;-66
2023/10/17 03:19:25;;;;;;;7.80;4.18;;;8.50;99.90;;;;;;4998395;28;20317;-66
2023/10/17 03:21:53;;;;;;;5.82;4.45;;;8.70;99.90;;;;;;4996007;28;20294;-66
2023/10/17 03:24:24;;;;;;;7.75;4.60;;;8.80;99.90;;;;;;5003372;28;20222;-66
2023/10/17 03:26:55;;;;;;;7.88;4.68;;;8.80;99.90;;;;;;4991393;28;20206;-66
2023/10/17 03:29:23;;;;;;;11.73;5.07;;;8.10;99.90;;;;;;5003886;28;20206;-66
2023/10/17 03:31:53;;;;;;;5.75;4.40;;;8.80;99.90;;;;;;4946274;28;20218;-66
2023/10/17 03:34:34;;;;;;;5.55;4.35;;;8.90;99.90;;;;;;5004345;28;20293;-66
2023/10/17 03:37:26;;;;;;;6.28;4.38;;;8.90;99.90;;;;;;4974102;28;20236;-66
2023/10/17 03:39:52;;;;;;;7.15;5.00;;;8.80;99.90;;;;;;4986646;28;20403;-66
2023/10/17 03:42:31;;;;;;;8.15;4.88;;;8.80;99.90;;;;;;4996153;28;20821;-66
2023/10/17 03:44:58;;;;;;;6.13;4.80;;;8.80;99.90;;;;;;4993439;28;20317;-66
2023/10/17 03:47:26;;;;;;;8.95;5.10;;;8.90;99.90;;;;;;4970642;28;20210;-66
2023/10/17 03:49:56;;;;;;;10.68;4.90;;;9.00;99.90;;;;;;4989078;28;20359;-66
2023/10/17 03:52:23;;;;;;;10.55;4.80;;;8.90;99.90;;;;;;4994819;28;20203;-66
2023/10/17 03:54:50;;;;;;;11.52;5.60;;;8.90;99.90;;;;;;4993825;28;20210;-66
2023/10/17 03:57:17;;;;;;;10.55;5.20;;;8.90;99.90;;;;;;4991337;28;20262;-66
2023/10/17 03:59:51;;;;;;;6.88;4.85;;;8.90;99.90;;;;;;4998293;28;20712;-67
2023/10/17 04:02:20;;;;;;;6.53;4.43;;;8.90;99.90;;;;;;4955351;28;20802;-67
2023/10/17 04:04:53;;;;;;;6.72;4.68;;;9.00;99.90;;;;;;4986243;28;20198;-67
2023/10/17 04:07:23;;;;;;;10.15;5.15;;;8.80;99.90;;;;;;4988909;28;20209;-66
2023/10/17 04:10:17;;;;;;;5.28;4.72;;;8.90;99.90;;;;;;4977648;28;21221;-66
2023/10/17 04:12:49;;;;;;;6.07;4.65;;;8.80;99.90;;;;;;4976873;28;20206;-66
2023/10/17 04:15:18;;;;;;;6.68;4.97;;;8.80;99.90;;;;;;5006780;28;20195;-66
2023/10/17 04:17:46;;;;;;;7.97;5.20;;;8.70;99.90;;;;;;4959414;28;20226;-67
2023/10/17 04:20:16;;;;;;;7.68;5.90;;;8.80;99.90;;;;;;4987756;28;20260;-66
2023/10/17 04:22:44;;;;;;;6.20;5.22;;;8.40;99.90;;;;;;4987555;28;20333;-67
2023/10/17 04:25:20;;;;;;;9.30;5.55;;;8.80;99.90;;;;;;4980205;28;20340;-66
2023/10/17 04:27:51;;;;;;;8.60;5.25;;;8.80;99.90;;;;;;5001763;28;20317;-66
2023/10/17 04:30:22;;;;;;;8.80;4.95;;;8.80;99.90;;;;;;4989618;28;20578;-66
2023/10/17 04:32:52;;;;;;;9.10;5.40;;;8.80;99.90;;;;;;4994537;28;20892;-66
2023/10/17 04:35:20;;;;;;;8.98;5.65;;;8.80;99.90;;;;;;4958504;28;21331;-66
2023/10/17 04:38:09;;;;;;;7.45;5.38;;;8.80;99.90;;;;;;4988078;28;20269;-66
2023/10/17 04:40:41;;;;;;;7.07;5.15;;;9.40;99.90;;;;;;4977499;28;20301;-67
2023/10/17 04:45:56;;;;;;;5.70;4.95;;;8.80;99.90;;;;;;4979129;28;20263;-67
2023/10/17 04:48:32;;;;;;;6.30;4.70;;;8.90;99.90;;;;;;4988156;28;20199;-67
2023/10/17 04:51:11;;;;;;;5.55;4.50;;;7.30;99.90;;;;;;4980552;28;20755;-67
2023/10/17 04:53:47;;;;;;;6.97;5.40;;;8.50;99.90;;;;;;4972970;28;20252;-66
2023/10/17 04:56:16;;;;;;;8.18;5.53;;;8.50;99.90;;;;;;4979599;28;20224;-67
2023/10/17 04:58:48;;;;;;;7.50;5.15;;;8.40;99.90;;;;;;4988174;28;20241;-66
2023/10/17 05:01:34;;;;;;;10.65;5.22;;;8.40;99.90;;;;;;4976565;28;20211;-66
2023/10/17 05:04:02;;;;;;;8.25;5.57;;;8.20;99.90;;;;;;4989355;28;20316;-66
2023/10/17 06:16:49;;;;;;;9.10;4.35;;;8.00;99.90;;;;;;4982838;28;20222;-66
2023/10/17 06:18:18;;;;;;;6.70;4.63;;;8.20;99.90;;;;;;4978454;28;20327;-66
2023/10/17 06:21:06;;;;;;;7.93;4.85;;;8.20;99.90;;;;;;4983450;28;20825;-66
2023/10/17 06:31:56;;;;;;;22.80;9.00;;;8.20;99.90;;;;;;4973615;28;20661;-66
2023/10/17 06:34:23;;;;;;;16.13;7.00;;;8.00;99.90;;;;;;4974886;28;20303;-67
2023/10/17 06:36:50;;;;;;;13.00;6.03;;;8.00;99.90;;;;;;4957728;28;21079;-67
2023/10/17 06:39:18;;;;;;;9.77;4.90;;;7.90;99.90;;;;;;4995426;28;20653;-66
2023/10/17 06:41:45;;;;;;;7.45;4.00;;;7.90;99.90;;;;;;4978580;28;20794;-66
2023/10/17 06:44:15;;;;;;;27.20;6.70;;;7.90;99.90;;;;;;4982554;28;20218;-66
2023/10/17 06:46:48;;;;;;;22.02;6.40;;;;;;;;;;4995874;28;20550;-66
2023/10/17 06:49:30;;;;;;;27.33;13.18;;;9.30;99.90;;;;;;4977198;28;20321;-66
2023/10/17 06:52:09;;;;;;;18.27;7.85;;;8.60;99.90;;;;;;4989867;28;20408;-66
2023/10/17 06:54:40;;;;;;;197.15;56.55;;;8.20;99.90;;;;;;4946045;28;20422;-66
2023/10/17 06:57:18;;;;;;;207.73;57.20;;;8.20;99.90;;;;;;4989947;28;20222;-66
2023/10/17 06:59:45;;;;;;;91.20;28.23;;;8.10;99.90;;;;;;4982689;28;20668;-66
2023/10/17 07:02:16;;;;;;;98.85;29.35;;;8.00;99.90;;;;;;4991531;28;21138;-66
2023/10/17 07:04:45;;;;;;;122.60;36.83;;;7.90;99.90;;;;;;4985007;28;20252;-66
2023/10/17 07:07:13;;;;;;;113.65;32.30;;;8.00;99.90;;;;;;4992205;28;20543;-66
2023/10/17 07:09:42;;;;;;;25.13;9.50;;;7.80;99.90;;;;;;4957277;28;21140;-67
2023/10/17 07:12:13;;;;;;;13.45;5.68;;;7.80;99.90;;;;;;4979029;28;20336;-66
2023/10/17 07:14:47;;;;;;;19.38;3.83;;;8.90;99.90;;;;;;4985792;28;20206;-66
2023/10/17 07:17:25;;;;;;;8.48;3.63;;;8.40;99.90;;;;;;4995789;28;20247;-67
2023/10/17 07:19:59;;;;;;;6.75;3.10;;;8.20;99.90;;;;;;4982831;28;20657;-66
2023/10/17 07:22:35;;;;;;;12.13;6.30;;;8.00;99.90;;;;;;4984413;28;20242;-66
2023/10/17 07:25:02;;;;;;;13.73;7.97;;;7.80;99.90;;;;;;4952865;28;20439;-66
2023/10/17 07:27:33;;;;;;;3.03;2.40;;;7.80;99.90;;;;;;4989776;28;20325;-66
2023/10/17 07:30:10;;;;;;;4.10;2.40;;;7.50;99.90;;;;;;4984046;28;20219;-66
2023/10/17 07:32:45;;;;;;;7.80;2.78;;;7.50;99.90;;;;;;4993788;28;20272;-66
2023/10/17 07:35:23;;;;;;;5.97;2.92;;;7.50;99.90;;;;;;4976622;28;20802;-66
2023/10/17 07:37:53;;;;;;;22.67;3.80;;;7.50;99.90;;;;;;4996139;28;20232;-66
2023/10/17 07:40:31;;;;;;;12.15;2.92;;;7.70;99.90;;;;;;4958697;28;20232;-66
2023/10/17 07:43:00;;;;;;;5.75;3.08;;;8.60;99.90;;;;;;4976822;28;20879;-66
2023/10/17 07:45:37;;;;;;;45.63;33.42;;;8.60;99.90;;;;;;4979690;28;20230;-66
2023/10/17 07:48:09;;;;;;;23.45;11.50;;;9.10;99.90;;;;;;4980339;28;20222;-67
2023/10/17 07:50:40;;;;;;;10.68;4.20;;;8.40;99.90;;;;;;4981476;28;20270;-66
2023/10/17 07:53:07;;;;;;;16.55;5.20;;;8.50;99.90;;;;;;4985708;28;20226;-66
2023/10/17 07:55:37;;;;;;;13.32;6.25;;;8.60;99.90;;;;;;4947506;28;20230;-66
2023/10/17 07:58:09;;;;;;;14.05;5.20;;;8.70;99.90;;;;;;4974996;28;20720;-66
2023/10/17 08:00:36;;;;;;;12.63;7.13;;;8.70;99.90;;;;;;4984254;28;20289;-66
2023/10/17 08:03:07;;;;;;;9.23;4.53;;;;;;;;;;4979878;28;20376;-67
2023/10/17 08:05:37;;;;;;;10.50;3.92;;;8.70;99.90;;;;;;4974554;28;20230;-67
2023/10/17 08:08:13;;;;;;;4.40;3.30;;;8.90;99.90;;;;;;4983508;28;20226;-66
2023/10/17 08:10:40;;;;;;;7.53;3.72;;;8.70;99.90;;;;;;4959330;28;20213;-66
2023/10/17 08:13:07;;;;;;;7.90;3.45;;;8.80;99.90;;;;;;4979264;28;20460;-66
2023/10/17 08:15:38;;;;;;;17.23;5.38;;;8.90;99.90;;;;;;4988888;28;20213;-67
2023/10/17 08:18:14;;;;;;;9.18;4.30;;;8.80;99.90;;;;;;4991105;28;20488;-67
2023/10/17 08:20:54;;;;;;;7.38;3.70;;;8.90;99.90;;;;;;4992693;28;20202;-67
2023/10/17 08:23:23;;;;;;;18.27;4.22;;;8.90;99.90;;;;;;4990227;28;20226;-67
2023/10/17 08:25:59;;;;;;;11.88;4.60;;;9.50;99.90;;;;;;4952483;28;20295;-68
2023/10/17 08:28:33;;;;;;;24.15;5.35;;;9.00;99.90;;;;;;4995195;28;20288;-67
2023/10/17 08:31:17;;;;;;;7.93;4.55;;;9.20;99.90;;;;;;4973462;28;20812;-66
2023/10/17 08:33:47;;;;;;;17.42;5.13;;;9.10;99.90;;;;;;4990882;28;20535;-66
2023/10/17 08:36:14;;;;;;;12.50;4.38;;;9.10;99.90;;;;;;4983826;28;20811;-66
2023/10/17 08:38:42;;;;;;;7.38;3.92;;;9.20;99.90;;;;;;4971005;28;20782;-66
2023/10/17 08:41:09;;;;;;;6.35;3.42;;;9.30;99.90;;;;;;4938037;28;20395;-66
2023/10/17 08:43:36;;;;;;;12.70;3.97;;;9.30;99.90;;;;;;4983585;28;20201;-67
2023/10/17 08:46:07;;;;;;;9.95;4.07;;;9.50;99.90;;;;;;4987523;28;20797;-67
2023/10/17 08:48:36;;;;;;;5.70;3.95;;;9.50;99.90;;;;;;4984964;28;20251;-66
2023/10/17 08:51:06;;;;;;;8.75;4.13;;;9.60;99.90;;;;;;4975063;28;20555;-66
2023/10/17 08:53:33;;;;;;;18.70;5.00;;;9.70;99.90;;;;;;4971132;28;20921;-66
2023/10/17 08:56:07;;;;;;;9.15;4.10;;;11.80;99.90;;;;;;4981278;28;20600;-66
2023/10/17 08:58:36;;;;;;;22.92;4.53;;;9.70;99.90;;;;;;4960111;28;20242;-66
2023/10/17 09:01:10;;;;;;;7.97;4.22;;;9.60;99.90;;;;;;4989184;28;20356;-66
2023/10/17 09:03:41;;;;;;;39.03;6.93;;;9.70;99.90;;;;;;4985609;28;20225;-67
2023/10/17 09:06:28;;;;;;;11.05;3.75;;;9.70;99.90;;;;;;4990818;28;20224;-66
2023/10/17 09:08:58;;;;;;;20.40;5.45;;;9.80;99.90;;;;;;4984898;28;20209;-66
2023/10/17 09:11:33;;;;;;;49.25;6.65;;;10.30;99.90;;;;;;4948385;28;20362;-66
2023/10/17 09:14:16;;;;;;;7.65;3.20;;;10.30;99.90;;;;;;4986952;28;20221;-67
2023/10/17 09:16:50;;;;;;;18.90;4.45;;;10.70;99.90;;;;;;4991772;28;20202;-66
2023/10/17 09:19:20;;;;;;;22.10;8.18;;;10.90;99.90;;;;;;4975058;28;20237;-67
2023/10/17 09:21:50;;;;;;;61.38;30.42;;;10.90;99.90;;;;;;4981104;28;20229;-67
2023/10/17 09:24:37;;;;;;;28.65;10.27;;;10.90;99.90;;;;;;4963520;28;20218;-67
2023/10/17 09:27:10;;;;;;;21.48;4.07;;;10.70;99.90;;;;;;4948816;28;20252;-66
2023/10/17 09:29:46;;;;;;;14.57;3.13;;;11.10;99.90;;;;;;4975742;28;20199;-67
2023/10/17 09:32:13;;;;;;;4.68;2.05;;;11.40;99.90;;;;;;4988934;28;20229;-67
2023/10/17 09:34:41;;;;;;;10.38;3.13;;;11.50;99.90;;;;;;4985014;28;20229;-67
2023/10/17 09:37:13;;;;;;;36.90;6.03;;;11.50;99.90;;;;;;4989382;28;20225;-66
2023/10/17 09:39:46;;;;;;;150.88;66.47;;;11.30;99.90;;;;;;4972536;28;20234;-67
2023/10/17 09:42:15;;;;;;;8.25;2.97;;;11.30;99.90;;;;;;4950816;28;20236;-67
2023/10/17 09:44:42;;;;;;;28.10;3.35;;;11.00;99.90;;;;;;4968518;28;21001;-67
2023/10/17 09:47:10;;;;;;;4.05;2.08;;;11.00;99.90;;;;;;4986954;28;20218;-66
2023/10/17 09:49:43;;;;;;;5.57;2.08;;;10.70;99.90;;;;;;4971218;28;20210;-67
2023/10/17 09:52:13;;;;;;;6.65;2.53;;;10.60;99.90;;;;;;4979606;28;20230;-66
2023/10/17 09:54:43;;;;;;;12.68;2.17;;;10.60;99.90;;;;;;4977501;28;20221;-67
2023/10/17 09:57:15;;;;;;;14.95;2.42;;;10.60;99.90;;;;;;4969492;28;20224;-66
2023/10/17 09:59:50;;;;;;;22.63;3.42;;;10.60;99.90;;;;;;4948420;28;20238;-67
2023/10/17 10:02:20;;;;;;;10.77;2.83;;;10.60;99.90;;;;;;4956304;28;20194;-67
2023/10/17 10:04:48;;;;;;;9.70;2.90;;;10.70;99.90;;;;;;4978635;28;20506;-67
2023/10/17 10:07:22;;;;;;;14.07;2.88;;;10.70;99.90;;;;;;4983297;28;20214;-67
2023/10/17 10:09:49;;;;;;;137.60;95.78;;;10.90;99.90;;;;;;4976725;28;20925;-67
2023/10/17 10:12:18;;;;;;;15.13;9.60;;;11.00;99.90;;;;;;4986420;28;20202;-67
2023/10/17 10:14:47;;;;;;;12.57;6.88;;;11.00;99.90;;;;;;4958495;28;20922;-67
2023/10/17 10:17:17;;;;;;;9.77;3.53;;;10.90;99.90;;;;;;4987285;28;20414;-67
2023/10/17 10:20:04;;;;;;;9.43;2.45;;;9.00;99.90;;;;;;4977714;28;20236;-67
2023/10/17 10:22:53;;;;;;;22.90;3.25;;;10.80;99.90;;;;;;4996692;28;20210;-67
2023/10/17 10:25:22;;;;;;;9.55;3.67;;;10.80;99.90;;;;;;4989545;28;20189;-67
2023/10/17 10:28:29;;;;;;;8.05;3.13;;;11.00;99.90;;;;;;4973172;28;20225;-67
2023/10/17 10:30:55;;;;;;;45.92;19.08;;;11.00;99.90;;;;;;4965525;28;20221;-67
2023/10/17 10:33:28;;;;;;;16.02;7.70;;;11.00;99.90;;;;;;4996385;28;20891;-68
2023/10/17 10:35:55;;;;;;;24.08;5.57;;;11.40;99.90;;;;;;4987238;28;20214;-67
2023/10/17 10:38:27;;;;;;;8.80;4.55;;;11.30;99.90;;;;;;4991083;28;20784;-67
2023/10/17 10:40:55;;;;;;;6.65;2.67;;;11.50;99.90;;;;;;4994972;28;20334;-67
2023/10/17 10:43:25;;;;;;;58.08;34.60;;;11.60;99.90;;;;;;4996813;28;20210;-67
2023/10/17 10:45:55;;;;;;;19.60;12.13;;;11.70;99.90;;;;;;4976224;28;20774;-67
2023/10/17 10:48:21;;;;;;;26.98;10.98;;;11.70;99.90;;;;;;5000150;28;20206;-66
2023/10/17 10:50:49;;;;;;;6.93;2.58;;;11.70;99.90;;;;;;4986734;28;20554;-67
2023/10/17 10:53:21;;;;;;;15.75;2.20;;;11.60;99.90;;;;;;5001717;28;20202;-67
2023/10/17 10:55:52;;;;;;;13.20;3.33;;;11.50;99.90;;;;;;4994848;28;20695;-67
2023/10/17 10:58:19;;;;;;;18.88;3.88;;;11.50;99.90;;;;;;4995170;28;20218;-68
2023/10/17 11:00:48;;;;;;;3.97;1.95;;;11.40;99.90;;;;;;4946132;28;20237;-67
2023/10/17 11:03:17;;;;;;;4.10;1.17;;;12.00;99.90;;;;;;4992691;28;21378;-66
2023/10/17 11:05:54;;;;;;;5.40;2.92;;;11.50;99.90;;;;;;4984720;28;20209;-66
2023/10/17 11:08:21;;;;;;;8.38;2.08;;;11.50;99.90;;;;;;4998371;28;20210;-66
2023/10/17 11:10:48;;;;;;;3.50;1.30;;;11.50;99.90;;;;;;5002478;28;20758;-67
2023/10/17 11:13:16;;;;;;;2.10;1.48;;;;;;;;;;5003590;28;20195;-67
2023/10/17 11:15:44;;;;;;;10.30;2.50;;;11.50;99.90;;;;;;4955955;28;20244;-67
2023/10/17 11:18:15;;;;;;;17.38;4.75;;;11.50;99.90;;;;;;4999350;28;20891;-66
2023/10/17 11:20:43;;;;;;;2.05;1.35;;;11.50;99.90;;;;;;4987342;28;20781;-66
2023/10/17 11:23:13;;;;;;;2.83;1.17;;;11.50;99.90;;;;;;4991182;28;20735;-66
2023/10/17 11:25:46;;;;;;;5.07;1.60;;;11.50;99.90;;;;;;4983061;28;20222;-66
2023/10/17 11:28:16;;;;;;;44.80;7.50;;;11.50;99.90;;;;;;4985383;28;20198;-66
2023/10/17 11:30:45;;;;;;;40.80;6.50;;;11.50;99.90;;;;;;4959594;28;20675;-67
2023/10/17 11:33:18;;;;;;;22.25;1.63;;;11.60;99.90;;;;;;5000025;28;20198;-67
2023/10/17 11:35:49;;;;;;;2.30;1.27;;;11.60;99.90;;;;;;4982809;28;20216;-66
2023/10/17 11:38:33;;;;;;;5.22;1.33;;;11.50;99.90;;;;;;4999303;28;20223;-66
2023/10/17 11:41:00;;;;;;;4.47;1.00;;;11.50;99.90;;;;;;4996007;28;20200;-67
2023/10/17 11:43:29;;;;;;;5.50;1.90;;;11.50;99.90;;;;;;4991134;28;20220;-66
2023/10/17 11:45:57;;;;;;;12.65;4.00;;;11.50;99.90;;;;;;4999059;28;21048;-66
2023/10/17 11:48:31;;;;;;;3.08;1.73;;;11.30;99.90;;;;;;4958038;28;20795;-66
2023/10/17 11:51:09;;;;;;;2.13;1.15;;;11.50;99.90;;;;;;4981264;28;20726;-66
2023/10/17 11:53:37;;;;;;;1.98;1.15;;;11.30;99.90;;;;;;4994098;28;20461;-66
2023/10/17 11:56:05;;;;;;;3.55;0.90;;;11.30;99.90;;;;;;4995225;28;20198;-66
2023/10/17 11:58:33;;;;;;;2.20;1.45;;;;;;;;;;4995682;28;20198;-66
2023/10/17 12:01:00;;;;;;;1.90;1.20;;;11.20;99.90;;;;;;4986231;28;20603;-66
2023/10/17 12:03:28;;;;;;;11.32;1.23;;;11.20;99.90;;;;;;4951605;28;20234;-66
2023/10/17 12:05:55;;;;;;;0.82;0.77;;;11.20;99.90;;;;;;4982464;28;20340;-66
2023/10/17 12:08:29;;;;;;;2.22;0.90;;;11.20;99.90;;;;;;4999943;28;20201;-66
2023/10/17 12:10:55;;;;;;;3.08;0.88;;;11.20;99.90;;;;;;4996650;28;20845;-66
2023/10/17 12:13:22;;;;;;;4.30;1.02;;;11.40;99.90;;;;;;5002900;28;20204;-66
2023/10/17 12:15:49;;;;;;;5.45;0.88;;;11.50;99.90;;;;;;4995285;28;20499;-66
2023/10/17 12:18:16;;;;;;;2.88;0.70;;;11.50;99.90;;;;;;4957327;28;20202;-66
2023/10/17 12:20:49;;;;;;;4.38;0.98;;;11.40;99.90;;;;;;4982393;28;21069;-66
2023/10/17 12:23:18;;;;;;;17.92;2.42;;;11.40;99.90;;;;;;4991564;28;20774;-66
2023/10/17 12:25:45;;;;;;;20.83;4.80;;;11.40;99.90;;;;;;4991231;28;20257;-66
2023/10/17 12:28:12;;;;;;;6.78;2.72;;;11.50;99.90;;;;;;4996474;28;20213;-66
2023/10/17 12:30:39;;;;;;;2.30;0.90;;;11.40;99.90;;;;;;4996641;28;20292;-66
2023/10/17 12:33:08;;;;;;;8.30;1.98;;;11.40;99.90;;;;;;4963600;28;20603;-66
2023/10/17 12:35:37;;;;;;;1.05;0.70;;;11.60;99.90;;;;;;4990416;28;20800;-66
2023/10/17 12:38:14;;;;;;;1.83;1.58;;;11.40;99.90;;;;;;4987804;28;20230;-66
2023/10/17 12:40:41;;;;;;;2.28;1.38;;;11.30;99.90;;;;;;4987851;28;20742;-67
2023/10/17 12:43:11;;;;;;;2.30;1.70;;;11.20;99.90;;;;;;4994438;28;20201;-66
2023/10/17 12:45:38;;;;;;;10.23;3.67;;;11.20;99.90;;;;;;4991741;28;20198;-66
2023/10/17 12:48:08;;;;;;;3.45;1.15;;;11.20;99.90;;;;;;4991595;28;20563;-66
2023/10/17 12:50:35;;;;;;;41.17;27.38;;;11.10;99.90;;;;;;4953647;28;20205;-66
2023/10/17 12:53:02;;;;;;;49.05;28.90;;;11.20;99.90;;;;;;4987026;28;20747;-66
2023/10/17 12:55:30;;;;;;;2.15;1.45;;;11.10;99.90;;;;;;4986500;28;20293;-66
2023/10/17 12:57:57;;;;;;;1.98;0.90;;;11.10;99.90;;;;;;4993478;28;20194;-66
2023/10/17 13:00:27;;;;;;;2.38;0.93;;;11.10;99.90;;;;;;4996020;28;20316;-66
2023/10/17 13:02:54;;;;;;;3.58;0.93;;;11.20;99.90;;;;;;4973118;28;20343;-66
2023/10/17 13:05:21;;;;;;;1.25;0.73;;;11.20;99.90;;;;;;4954353;28;20214;-66
2023/10/17 13:07:48;;;;;;;11.13;1.02;;;12.00;99.90;;;;;;4975753;28;20199;-67
2023/10/17 13:10:15;;;;;;;1.98;0.88;;;11.50;99.90;;;;;;4994518;28;20199;-67
2023/10/17 13:12:43;;;;;;;4.05;1.17;;;11.60;99.90;;;;;;4996730;28;20221;-67
2023/10/17 13:15:14;;;;;;;0.73;0.70;;;11.50;99.90;;;;;;4976250;28;20226;-66
2023/10/17 13:17:42;;;;;;;1.40;0.70;;;11.40;99.90;;;;;;4991444;28;20222;-66
2023/10/17 13:20:10;;;;;;;5.20;1.13;;;9.60;99.90;;;;;;4939348;28;20253;-66
2023/10/17 13:22:42;;;;;;;2.45;0.85;;;11.40;99.90;;;;;;4990995;28;20226;-66
2023/10/17 13:25:10;;;;;;;10.77;1.85;;;11.20;99.90;;;;;;4978830;28;20884;-66
2023/10/17 13:27:37;;;;;;;1.45;0.90;;;11.30;99.90;;;;;;4989155;28;20825;-66
2023/10/17 13:30:07;;;;;;;2.58;1.52;;;11.30;99.90;;;;;;4993635;28;20228;-66
2023/10/17 13:32:34;;;;;;;4.10;1.15;;;11.50;99.90;;;;;;4986635;28;20654;-66
2023/10/17 13:35:01;;;;;;;4.40;1.33;;;11.30;99.90;;;;;;4954134;28;20233;-66
2023/10/17 13:37:28;;;;;;;2.10;1.25;;;11.20;99.90;;;;;;4976694;28;21010;-66
2023/10/17 13:39:55;;;;;;;20.20;3.55;;;11.30;99.90;;;;;;4979982;28;20242;-66
2023/10/17 13:42:23;;;;;;;24.13;3.28;;;11.60;99.90;;;;;;4994475;28;20257;-66
2023/10/17 13:44:50;;;;;;;23.90;3.42;;;11.80;99.90;;;;;;4987706;28;20749;-66
2023/10/17 13:47:18;;;;;;;17.45;4.35;;;11.80;99.90;;;;;;4991154;28;20234;-66
2023/10/17 13:49:45;;;;;;;18.05;3.53;;;12.50;99.90;;;;;;4954697;28;20577;-66
2023/10/17 13:52:17;;;;;;;23.33;2.50;;;12.50;99.90;;;;;;4980782;28;20307;-67
2023/10/17 13:54:44;;;;;;;36.92;3.42;;;12.90;99.90;;;;;;4976744;28;20348;-66
2023/10/17 13:57:12;;;;;;;7.47;1.35;;;12.90;99.90;;;;;;4980227;28;20340;-66
2023/10/17 13:59:46;;;;;;;48.55;24.77;;;13.20;99.90;;;;;;4981674;28;20233;-66
2023/10/17 14:02:15;;;;;;;11.05;5.47;;;13.30;99.90;;;;;;4990267;28;20879;-66
2023/10/17 14:04:43;;;;;;;11.45;1.92;;;13.20;99.90;;;;;;4980760;28;20324;-66
2023/10/17 14:07:11;;;;;;;9.57;1.48;;;13.30;99.90;;;;;;4940429;28;20252;-66
2023/10/17 14:09:39;;;;;;;1.75;0.80;;;13.00;99.90;;;;;;4954271;28;20674;-66
2023/10/17 14:12:08;;;;;;;30.80;2.45;;;13.00;99.90;;;;;;4980005;28;20214;-66
2023/10/17 14:14:35;;;;;;;6.75;1.08;;;12.80;99.90;;;;;;4973084;28;20594;-66
2023/10/17 14:17:03;;;;;;;8.35;1.02;;;12.70;99.90;;;;;;4984950;28;20226;-66
2023/10/17 14:19:40;;;;;;;2.63;1.70;;;12.40;99.90;;;;;;4989497;28;20260;-66
2023/10/17 14:22:33;;;;;;;2.15;0.85;;;12.20;99.90;;;;;;4950782;28;21061;-66
2023/10/17 14:25:04;;;;;;;1.20;0.73;;;12.20;99.90;;;;;;4969900;28;20272;-66
2023/10/17 14:27:31;;;;;;;3.63;0.75;;;11.90;99.90;;;;;;4971173;28;20324;-66
2023/10/17 14:29:59;;;;;;;3.03;0.80;;;11.90;99.90;;;;;;4976575;28;20646;-66